createdAt,value
2023-05-05T00:00:03.073Z,1062.00
2023-05-05T00:01:03.103Z,1061.00
2023-05-05T00:02:03.144Z,1059.00
2023-05-05T00:03:03.214Z,1058.00
2023-05-05T00:04:03.230Z,1060.00
2023-05-05T00:05:03.218Z,1060.00
2023-05-05T00:06:03.176Z,1061.00
2023-05-05T00:07:03.193Z,1060.00
2023-05-05T00:08:03.979Z,1059.00
2023-05-05T00:09:03.220Z,1063.00
2023-05-05T00:10:03.233Z,1061.00
2023-05-05T00:11:03.259Z,1059.00
2023-05-05T00:12:03.261Z,1059.00
2023-05-05T00:13:03.306Z,1059.00
2023-05-05T00:14:03.296Z,1057.00
2023-05-05T00:15:03.302Z,1057.00
2023-05-05T00:16:03.318Z,1057.00
2023-05-05T00:17:03.339Z,1056.00
2023-05-05T00:18:03.390Z,1056.00
2023-05-05T00:19:03.361Z,1055.00
2023-05-05T00:20:03.382Z,1055.00
2023-05-05T00:21:03.403Z,1060.00
2023-05-05T00:22:03.409Z,1059.00
2023-05-05T00:23:03.424Z,1055.00
2023-05-05T00:24:03.446Z,1053.00
2023-05-05T00:25:03.463Z,1053.00
2023-05-05T00:26:03.482Z,1052.00
2023-05-05T00:27:03.514Z,1047.00
2023-05-05T00:28:03.513Z,1051.00
2023-05-05T00:29:03.522Z,1049.00
2023-05-05T00:30:03.546Z,1046.00
2023-05-05T00:31:03.621Z,1046.00
2023-05-05T00:32:03.575Z,1046.00
2023-05-05T00:33:03.640Z,1047.00
2023-05-05T00:34:03.620Z,1048.00
2023-05-05T00:35:03.642Z,1047.00
2023-05-05T00:36:03.658Z,1043.00
2023-05-05T00:37:03.665Z,1038.00
2023-05-05T00:38:03.686Z,1037.00
2023-05-05T00:39:03.706Z,1038.00
2023-05-05T00:40:03.717Z,1040.00
2023-05-05T00:41:03.733Z,1038.00
2023-05-05T00:42:03.764Z,1038.00
2023-05-05T00:43:03.784Z,1041.00
2023-05-05T00:44:03.801Z,1043.00
2023-05-05T00:45:03.820Z,1046.00
2023-05-05T00:46:03.880Z,1042.00
2023-05-05T00:47:03.863Z,1039.00
2023-05-05T00:48:03.920Z,1038.00
2023-05-05T00:49:03.945Z,1039.00
2023-05-05T00:50:03.973Z,1041.00
2023-05-05T00:51:03.925Z,1043.00
2023-05-05T00:52:03.957Z,1041.00
2023-05-05T00:53:03.993Z,1039.00
2023-05-05T00:54:03.986Z,1038.00
2023-05-05T00:55:04.009Z,1033.00
2023-05-05T00:56:04.030Z,1032.00
2023-05-05T00:57:05.007Z,1029.00
2023-05-05T00:58:04.109Z,1028.00
2023-05-05T00:59:04.092Z,1027.00
2023-05-05T01:00:04.140Z,1029.00
2023-05-05T01:01:04.144Z,1027.00
2023-05-05T01:02:04.303Z,1020.00
2023-05-05T01:03:04.271Z,1020.00
2023-05-05T01:04:04.229Z,1021.00
2023-05-05T01:05:04.239Z,1020.00
2023-05-05T01:06:04.257Z,1014.00
2023-05-05T01:07:04.284Z,1011.00
2023-05-05T01:08:04.304Z,1016.00
2023-05-05T01:09:04.319Z,1022.00
2023-05-05T01:10:15.588Z,1023.00
2023-05-05T01:11:05.344Z,1024.00
2023-05-05T01:12:04.326Z,1025.00
2023-05-05T01:13:04.340Z,1026.00
2023-05-05T01:14:04.296Z,1023.00
2023-05-05T01:15:04.294Z,1024.00
2023-05-05T01:16:04.333Z,1024.00
2023-05-05T01:17:04.286Z,1024.00
2023-05-05T01:18:04.308Z,1022.00
2023-05-05T01:19:04.284Z,1024.00
2023-05-05T01:20:04.269Z,1021.00
2023-05-05T01:21:04.272Z,1023.00
2023-05-05T01:22:04.253Z,1026.00
2023-05-05T01:23:04.260Z,1028.00
2023-05-05T01:24:04.245Z,1025.00
2023-05-05T01:25:04.229Z,1023.00
2023-05-05T01:26:04.234Z,1022.00
2023-05-05T01:27:04.224Z,1023.00
2023-05-05T01:28:04.217Z,1023.00
2023-05-05T01:29:04.253Z,1022.00
2023-05-05T01:30:04.271Z,1020.00
2023-05-05T01:31:04.300Z,1022.00
2023-05-05T01:32:04.379Z,1022.00
2023-05-05T01:33:04.321Z,1022.00
2023-05-05T01:34:04.321Z,1019.00
2023-05-05T01:35:04.342Z,1018.00
2023-05-05T01:36:04.343Z,1021.00
2023-05-05T01:37:04.334Z,1020.00
2023-05-05T01:38:04.356Z,1018.00
2023-05-05T01:39:04.340Z,1018.00
2023-05-05T01:40:04.394Z,1013.00
2023-05-05T01:41:04.350Z,1011.00
2023-05-05T01:42:04.356Z,1010.00
2023-05-05T01:43:04.350Z,1012.00
2023-05-05T01:44:04.369Z,1012.00
2023-05-05T01:45:04.374Z,1012.00
2023-05-05T01:46:04.382Z,1011.00
2023-05-05T01:47:04.378Z,1008.00
2023-05-05T01:48:04.428Z,1007.00
2023-05-05T01:49:04.395Z,1004.00
2023-05-05T01:50:04.386Z,1003.00
2023-05-05T01:51:04.401Z,1006.00
2023-05-05T01:52:04.401Z,1002.00
2023-05-05T01:53:04.409Z,1004.00
2023-05-05T01:54:04.419Z,1004.00
2023-05-05T01:55:04.409Z,1003.00
2023-05-05T01:56:04.404Z,1000.00
2023-05-05T01:57:04.422Z,1002.00
2023-05-05T01:58:04.425Z,999.00
2023-05-05T01:59:04.426Z,1000.00
2023-05-05T02:00:04.444Z,1004.00
2023-05-05T02:01:04.477Z,1004.00
2023-05-05T02:02:04.454Z,1005.00
2023-05-05T02:03:04.553Z,1004.00
2023-05-05T02:04:04.531Z,1003.00
2023-05-05T02:05:04.455Z,1000.00
2023-05-05T02:06:04.476Z,1001.00
2023-05-05T02:07:04.460Z,1000.00
2023-05-05T02:08:04.465Z,997.00
2023-05-05T02:09:04.484Z,999.00
2023-05-05T02:10:04.489Z,1000.00
2023-05-05T02:11:04.493Z,999.00
2023-05-05T02:12:04.501Z,1000.00
2023-05-05T02:13:04.670Z,998.00
2023-05-05T02:14:04.568Z,998.00
2023-05-05T02:15:04.524Z,999.00
2023-05-05T02:16:04.534Z,999.00
2023-05-05T02:17:04.529Z,1000.00
2023-05-05T02:18:04.612Z,1002.00
2023-05-05T02:19:04.559Z,1007.00
2023-05-05T02:20:04.561Z,1006.00
2023-05-05T02:21:04.552Z,1005.00
2023-05-05T02:22:04.565Z,1005.00
2023-05-05T02:23:04.580Z,1003.00
2023-05-05T02:24:04.577Z,1004.00
2023-05-05T02:25:04.591Z,1000.00
2023-05-05T02:26:04.595Z,1001.00
2023-05-05T02:27:04.587Z,999.00
2023-05-05T02:28:04.602Z,1000.00
2023-05-05T02:29:04.597Z,1000.00
2023-05-05T02:30:04.607Z,1001.00
2023-05-05T02:31:04.696Z,1002.00
2023-05-05T02:32:04.622Z,1004.00
2023-05-05T02:33:04.653Z,1004.00
2023-05-05T02:34:04.631Z,1006.00
2023-05-05T02:35:04.645Z,1005.00
2023-05-05T02:36:04.639Z,1003.00
2023-05-05T02:37:04.649Z,1002.00
2023-05-05T02:38:04.668Z,1000.00
2023-05-05T02:39:04.712Z,997.00
2023-05-05T02:40:04.814Z,997.00
2023-05-05T02:41:04.683Z,997.00
2023-05-05T02:42:04.690Z,996.00
2023-05-05T02:43:04.738Z,993.00
2023-05-05T02:44:04.716Z,991.00
2023-05-05T02:45:04.735Z,990.00
2023-05-05T02:46:04.762Z,988.00
2023-05-05T02:47:04.732Z,987.00
2023-05-05T02:48:04.821Z,986.00
2023-05-05T02:49:04.745Z,987.00
2023-05-05T02:50:04.758Z,985.00
2023-05-05T02:51:04.762Z,988.00
2023-05-05T02:52:04.764Z,990.00
2023-05-05T02:53:04.777Z,987.00
2023-05-05T02:54:04.780Z,986.00
2023-05-05T02:55:04.784Z,986.00
2023-05-05T02:56:04.801Z,986.00
2023-05-05T02:57:04.811Z,984.00
2023-05-05T02:58:04.823Z,984.00
2023-05-05T02:59:04.862Z,987.00
2023-05-05T03:00:04.905Z,989.00
2023-05-05T03:01:04.977Z,986.00
2023-05-05T03:02:04.938Z,984.00
2023-05-05T03:03:05.069Z,983.00
2023-05-05T03:04:04.987Z,980.00
2023-05-05T03:05:05.020Z,980.00
2023-05-05T03:06:05.059Z,978.00
2023-05-05T03:07:05.091Z,977.00
2023-05-05T03:08:05.121Z,979.00
2023-05-05T03:09:05.146Z,980.00
2023-05-05T03:10:05.305Z,977.00
2023-05-05T03:11:05.205Z,973.00
2023-05-05T03:12:05.228Z,975.00
2023-05-05T03:13:05.359Z,973.00
2023-05-05T03:14:05.281Z,975.00
2023-05-05T03:15:05.302Z,973.00
2023-05-05T03:16:05.356Z,971.00
2023-05-05T03:17:05.366Z,973.00
2023-05-05T03:18:05.405Z,973.00
2023-05-05T03:19:05.413Z,972.00
2023-05-05T03:20:05.548Z,969.00
2023-05-05T03:21:05.471Z,963.00
2023-05-05T03:22:05.496Z,961.00
2023-05-05T03:23:05.524Z,957.00
2023-05-05T03:24:05.562Z,958.00
2023-05-05T03:25:05.579Z,959.00
2023-05-05T03:26:05.597Z,960.00
2023-05-05T03:27:05.630Z,955.00
2023-05-05T03:28:05.659Z,949.00
2023-05-05T03:29:05.687Z,948.00
2023-05-05T03:30:05.807Z,947.00
2023-05-05T03:31:05.739Z,950.00
2023-05-05T03:32:05.772Z,951.00
2023-05-05T03:33:05.846Z,952.00
2023-05-05T03:34:05.795Z,952.00
2023-05-05T03:35:05.818Z,951.00
2023-05-05T03:36:05.839Z,952.00
2023-05-05T03:37:05.857Z,952.00
2023-05-05T03:38:05.887Z,950.00
2023-05-05T03:39:05.901Z,952.00
2023-05-05T03:40:06.044Z,956.00
2023-05-05T03:41:05.958Z,957.00
2023-05-05T03:42:05.969Z,956.00
2023-05-05T03:43:05.981Z,956.00
2023-05-05T03:44:06.021Z,952.00
2023-05-05T03:45:06.032Z,952.00
2023-05-05T03:46:06.119Z,954.00
2023-05-05T03:47:06.076Z,958.00
2023-05-05T03:48:06.159Z,957.00
2023-05-05T03:49:06.087Z,954.00
2023-05-05T03:50:06.248Z,954.00
2023-05-05T03:51:06.126Z,955.00
2023-05-05T03:52:06.148Z,952.00
2023-05-05T03:53:06.164Z,950.00
2023-05-05T03:54:06.197Z,949.00
2023-05-05T03:55:06.201Z,951.00
2023-05-05T03:56:06.217Z,949.00
2023-05-05T03:57:06.236Z,950.00
2023-05-05T03:58:06.278Z,948.00
2023-05-05T03:59:06.276Z,947.00
2023-05-05T04:00:06.412Z,945.00
2023-05-05T04:01:06.308Z,944.00
2023-05-05T04:02:06.376Z,942.00
2023-05-05T04:03:06.414Z,940.00
2023-05-05T04:04:06.396Z,942.00
2023-05-05T04:05:06.385Z,934.00
2023-05-05T04:06:06.414Z,931.00
2023-05-05T04:07:06.445Z,925.00
2023-05-05T04:08:06.445Z,922.00
2023-05-05T04:09:06.496Z,924.00
2023-05-05T04:10:06.717Z,939.00
2023-05-05T04:11:06.529Z,936.00
2023-05-05T04:12:06.525Z,936.00
2023-05-05T04:13:06.593Z,942.00
2023-05-05T04:14:06.552Z,940.00
2023-05-05T04:15:06.570Z,942.00
2023-05-05T04:16:06.666Z,941.00
2023-05-05T04:17:06.605Z,935.00
2023-05-05T04:18:06.639Z,931.00
2023-05-05T04:19:06.634Z,932.00
2023-05-05T04:20:06.869Z,932.00
2023-05-05T04:21:06.698Z,931.00
2023-05-05T04:22:06.688Z,930.00
2023-05-05T04:23:06.717Z,932.00
2023-05-05T04:24:06.788Z,929.00
2023-05-05T04:25:06.736Z,933.00
2023-05-05T04:26:06.759Z,934.00
2023-05-05T04:27:06.761Z,933.00
2023-05-05T04:28:06.785Z,919.00
2023-05-05T04:29:06.801Z,914.00
2023-05-05T04:30:06.998Z,908.00
2023-05-05T04:31:06.864Z,909.00
2023-05-05T04:32:06.862Z,913.00
2023-05-05T04:33:06.896Z,917.00
2023-05-05T04:34:06.929Z,922.00
2023-05-05T04:35:06.942Z,922.00
2023-05-05T04:36:06.937Z,923.00
2023-05-05T04:37:06.980Z,924.00
2023-05-05T04:38:07.095Z,924.00
2023-05-05T04:39:07.194Z,922.00
2023-05-05T04:40:07.164Z,924.00
2023-05-05T04:41:07.032Z,921.00
2023-05-05T04:42:07.052Z,922.00
2023-05-05T04:43:07.086Z,916.00
2023-05-05T04:44:07.094Z,913.00
2023-05-05T04:45:07.112Z,914.00
2023-05-05T04:46:07.149Z,917.00
2023-05-05T04:47:07.145Z,916.00
2023-05-05T04:48:07.241Z,914.00
2023-05-05T04:49:07.178Z,913.00
2023-05-05T04:50:07.404Z,911.00
2023-05-05T04:51:07.266Z,912.00
2023-05-05T04:52:07.257Z,913.00
2023-05-05T04:53:07.268Z,915.00
2023-05-05T04:54:07.464Z,917.00
2023-05-05T04:55:07.290Z,916.00
2023-05-05T04:56:07.313Z,914.00
2023-05-05T04:57:07.334Z,914.00
2023-05-05T04:58:07.347Z,908.00
2023-05-05T04:59:07.364Z,902.00
2023-05-05T05:00:07.744Z,905.00
2023-05-05T05:01:07.406Z,907.00
2023-05-05T05:02:07.503Z,910.00
2023-05-05T05:03:07.513Z,910.00
2023-05-05T05:04:07.466Z,913.00
2023-05-05T05:05:07.472Z,914.00
2023-05-05T05:06:07.490Z,913.00
2023-05-05T05:07:07.506Z,914.00
2023-05-05T05:08:07.508Z,915.00
2023-05-05T05:09:07.562Z,914.00
2023-05-05T05:10:07.718Z,917.00
2023-05-05T05:11:08.527Z,916.00
2023-05-05T05:12:07.520Z,916.00
2023-05-05T05:13:07.536Z,916.00
2023-05-05T05:14:07.508Z,914.00
2023-05-05T05:15:07.519Z,911.00
2023-05-05T05:16:07.551Z,913.00
2023-05-05T05:17:07.497Z,915.00
2023-05-05T05:18:07.482Z,916.00
2023-05-05T05:19:07.481Z,915.00
2023-05-05T05:20:07.541Z,916.00
2023-05-05T05:21:07.458Z,913.00
2023-05-05T05:22:07.455Z,911.00
2023-05-05T05:23:07.434Z,899.00
2023-05-05T05:24:07.436Z,928.00
2023-05-05T05:25:07.425Z,932.00
2023-05-05T05:26:07.421Z,943.00
2023-05-05T05:27:09.721Z,947.00
2023-05-05T05:28:10.602Z,947.00
2023-05-05T05:29:07.629Z,956.00
2023-05-05T05:30:07.813Z,988.00
2023-05-05T05:31:07.625Z,988.00
2023-05-05T05:32:07.692Z,1061.00
2023-05-05T05:33:07.712Z,1132.00
2023-05-05T05:34:07.672Z,1181.00
2023-05-05T05:35:07.609Z,1211.00
2023-05-05T05:36:07.605Z,1227.00
2023-05-05T05:37:07.577Z,1270.00
2023-05-05T05:38:07.590Z,1288.00
2023-05-05T05:39:07.575Z,1334.00
2023-05-05T05:40:07.832Z,1361.00
2023-05-05T05:41:07.552Z,1374.00
2023-05-05T05:42:07.532Z,1379.00
2023-05-05T05:43:07.533Z,1386.00
2023-05-05T05:44:07.515Z,1396.00
2023-05-05T05:45:07.508Z,1415.00
2023-05-05T05:46:09.016Z,1467.00
2023-05-05T05:47:08.055Z,1490.00
2023-05-05T05:48:07.542Z,1493.00
2023-05-05T05:49:07.478Z,1497.00
2023-05-05T05:50:07.852Z,1537.00
2023-05-05T05:51:07.440Z,1551.00
2023-05-05T05:52:07.421Z,1564.00
2023-05-05T05:53:07.414Z,1570.00
2023-05-05T05:54:07.399Z,1587.00
2023-05-05T05:55:08.044Z,1589.00
2023-05-05T05:56:07.361Z,1604.00
2023-05-05T05:57:07.335Z,1642.00
2023-05-05T05:58:07.321Z,1647.00
2023-05-05T05:59:07.304Z,1660.00
2023-05-05T06:00:07.517Z,1673.00
2023-05-05T06:01:07.280Z,1676.00
2023-05-05T06:02:07.277Z,1695.00
2023-05-05T06:03:07.435Z,1720.00
2023-05-05T06:04:07.538Z,1745.00
2023-05-05T06:05:07.310Z,1761.00
2023-05-05T06:06:07.338Z,1774.00
2023-05-05T06:07:07.374Z,1784.00
2023-05-05T06:08:07.413Z,1793.00
2023-05-05T06:09:08.399Z,1794.00
2023-05-05T06:10:25.063Z,1799.00
2023-05-05T06:11:08.365Z,1806.00
2023-05-05T06:12:07.336Z,1813.00
2023-05-05T06:13:07.348Z,1817.00
2023-05-05T06:14:07.302Z,1829.00
2023-05-05T06:15:07.272Z,1840.00
2023-05-05T06:16:07.305Z,1852.00
2023-05-05T06:17:07.247Z,1864.00
2023-05-05T06:18:07.270Z,1866.00
2023-05-05T06:19:07.201Z,1856.00
2023-05-05T06:20:07.465Z,1788.00
2023-05-05T06:21:07.158Z,1740.00
2023-05-05T06:22:07.143Z,1669.00
2023-05-05T06:23:07.125Z,1638.00
2023-05-05T06:24:07.111Z,1658.00
2023-05-05T06:25:07.122Z,1671.00
2023-05-05T06:26:07.163Z,1675.00
2023-05-05T06:27:07.176Z,1668.00
2023-05-05T06:28:07.217Z,1667.00
2023-05-05T06:29:07.350Z,1660.00
2023-05-05T06:30:08.407Z,1633.00
2023-05-05T06:31:07.307Z,1614.00
2023-05-05T06:32:07.284Z,1595.00
2023-05-05T06:33:07.350Z,1527.00
2023-05-05T06:34:07.343Z,1525.00
2023-05-05T06:35:07.379Z,1522.00
2023-05-05T06:36:07.418Z,1519.00
2023-05-05T06:37:07.451Z,1511.00
2023-05-05T06:38:07.476Z,1479.00
2023-05-05T06:39:07.517Z,1472.00
2023-05-05T06:40:07.892Z,1459.00
2023-05-05T06:41:07.567Z,1456.00
2023-05-05T06:42:07.618Z,1427.00
2023-05-05T06:43:07.635Z,1407.00
2023-05-05T06:44:07.664Z,1405.00
2023-05-05T06:45:07.687Z,1395.00
2023-05-05T06:46:07.707Z,1387.00
2023-05-05T06:47:07.950Z,1381.00
2023-05-05T06:48:07.800Z,1365.00
2023-05-05T06:49:07.821Z,1350.00
2023-05-05T06:50:08.095Z,1337.00
2023-05-05T06:51:07.886Z,1315.00
2023-05-05T06:52:07.917Z,1299.00
2023-05-05T06:53:07.945Z,1296.00
2023-05-05T06:54:07.976Z,1256.00
2023-05-05T06:55:08.006Z,1260.00
2023-05-05T06:56:08.019Z,1256.00
2023-05-05T06:57:08.068Z,1248.00
2023-05-05T06:58:08.143Z,1225.00
2023-05-05T06:59:08.109Z,1210.00
2023-05-05T07:00:08.348Z,1198.00
2023-05-05T07:01:08.217Z,1183.00
2023-05-05T07:02:08.200Z,1176.00
2023-05-05T07:03:08.252Z,1165.00
2023-05-05T07:04:08.295Z,1130.00
2023-05-05T07:05:08.292Z,1130.00
2023-05-05T07:06:08.314Z,1118.00
2023-05-05T07:07:08.351Z,1105.00
2023-05-05T07:08:08.382Z,1101.00
2023-05-05T07:09:08.396Z,1093.00
2023-05-05T07:10:08.537Z,1082.00
2023-05-05T07:11:08.459Z,1073.00
2023-05-05T07:12:08.473Z,1061.00
2023-05-05T07:13:08.553Z,1060.00
2023-05-05T07:14:08.618Z,1048.00
2023-05-05T07:15:23.331Z,1035.00
2023-05-05T07:16:09.558Z,1023.00
2023-05-05T07:17:08.526Z,1018.00
2023-05-05T07:18:08.558Z,1055.00
2023-05-05T07:19:08.507Z,1093.00
2023-05-05T07:20:08.931Z,1089.00
2023-05-05T07:21:08.452Z,1071.00
2023-05-05T07:22:08.488Z,1116.00
2023-05-05T07:23:08.430Z,1117.00
2023-05-05T07:24:08.419Z,1119.00
2023-05-05T07:25:08.419Z,1130.00
2023-05-05T07:26:08.397Z,1135.00
2023-05-05T07:27:08.394Z,1136.00
2023-05-05T07:28:08.375Z,1158.00
2023-05-05T07:29:08.416Z,1155.00
2023-05-05T07:30:12.396Z,1157.00
2023-05-05T07:31:08.362Z,1158.00
2023-05-05T07:32:08.356Z,1163.00
2023-05-05T07:33:08.398Z,1163.00
2023-05-05T07:34:08.299Z,1167.00
2023-05-05T07:35:08.290Z,1174.00
2023-05-05T07:36:08.263Z,1178.00
2023-05-05T07:37:08.240Z,1176.00
2023-05-05T07:38:09.485Z,1169.00
2023-05-05T07:39:09.164Z,1164.00
2023-05-05T07:40:09.557Z,1164.00
2023-05-05T07:41:08.314Z,1161.00
2023-05-05T07:42:08.302Z,1161.00
2023-05-05T07:43:08.287Z,1164.00
2023-05-05T07:44:08.277Z,1147.00
2023-05-05T07:45:08.432Z,1156.00
2023-05-05T07:46:08.373Z,1158.00
2023-05-05T07:47:08.227Z,1158.00
2023-05-05T07:48:08.263Z,1157.00
2023-05-05T07:49:08.203Z,1156.00
2023-05-05T07:50:08.467Z,1157.00
2023-05-05T07:51:08.162Z,1158.00
2023-05-05T07:52:08.156Z,1169.00
2023-05-05T07:53:14.593Z,1176.00
2023-05-05T07:54:09.100Z,1178.00
2023-05-05T07:55:08.063Z,1186.00
2023-05-05T07:56:08.051Z,1219.00
2023-05-05T07:57:08.030Z,1210.00
2023-05-05T07:58:08.000Z,1208.00
2023-05-05T07:59:09.008Z,1205.00
2023-05-05T08:00:08.166Z,1204.00
2023-05-05T08:01:07.917Z,1195.00
2023-05-05T08:02:08.769Z,1192.00
2023-05-05T08:03:10.615Z,1197.00
2023-05-05T08:04:07.947Z,1196.00
2023-05-05T08:05:08.213Z,1199.00
2023-05-05T08:06:07.806Z,1192.00
2023-05-05T08:07:07.790Z,1188.00
2023-05-05T08:08:07.780Z,1191.00
2023-05-05T08:09:07.741Z,1188.00
2023-05-05T08:10:07.734Z,1289.00
2023-05-05T08:11:07.690Z,1236.00
2023-05-05T08:12:07.659Z,1214.00
2023-05-05T08:13:07.721Z,1212.00
2023-05-05T08:14:07.621Z,1219.00
2023-05-05T08:15:07.901Z,1230.00
2023-05-05T08:16:07.564Z,1225.00
2023-05-05T08:17:07.584Z,1178.00
2023-05-05T08:18:07.675Z,1164.00
2023-05-05T08:19:17.592Z,1162.00
2023-05-05T08:20:08.492Z,1171.00
2023-05-05T08:21:07.489Z,1169.00
2023-05-05T08:22:07.458Z,1114.00
2023-05-05T08:23:07.430Z,1188.00
2023-05-05T08:24:07.417Z,1132.00
2023-05-05T08:25:07.560Z,1171.00
2023-05-05T08:26:07.357Z,1167.00
2023-05-05T08:27:07.337Z,1159.00
2023-05-05T08:28:07.322Z,1224.00
2023-05-05T08:29:07.302Z,1286.00
2023-05-05T08:30:07.292Z,1290.00
2023-05-05T08:31:07.352Z,1288.00
2023-05-05T08:32:07.344Z,1220.00
2023-05-05T08:33:07.378Z,1321.00
2023-05-05T08:34:07.544Z,1320.00
2023-05-05T08:35:07.865Z,1322.00
2023-05-05T08:36:07.404Z,1332.00
2023-05-05T08:37:08.393Z,1348.00
2023-05-05T08:38:07.355Z,1343.00
2023-05-05T08:39:07.348Z,1354.00
2023-05-05T08:40:07.310Z,1351.00
2023-05-05T08:41:07.287Z,1342.00
2023-05-05T08:42:07.262Z,1351.00
2023-05-05T08:43:07.254Z,1382.00
2023-05-05T08:44:07.243Z,1379.00
2023-05-05T08:45:07.389Z,1379.00
2023-05-05T08:46:07.184Z,1351.00
2023-05-05T08:47:07.241Z,1366.00
2023-05-05T08:48:07.226Z,1403.00
2023-05-05T08:49:07.124Z,1406.00
2023-05-05T08:50:07.168Z,1411.00
2023-05-05T08:51:07.086Z,1412.00
2023-05-05T08:52:07.052Z,1420.00
2023-05-05T08:53:07.039Z,1427.00
2023-05-05T08:54:07.035Z,1437.00
2023-05-05T08:55:07.270Z,1463.00
2023-05-05T08:56:06.963Z,1478.00
2023-05-05T08:57:06.951Z,1476.00
2023-05-05T08:58:07.693Z,1485.00
2023-05-05T08:59:06.926Z,1513.00
2023-05-05T09:00:06.922Z,1534.00
2023-05-05T09:01:06.956Z,1547.00
2023-05-05T09:02:06.908Z,1564.00
2023-05-05T09:03:07.079Z,1571.00
2023-05-05T09:04:06.883Z,1571.00
2023-05-05T09:05:07.173Z,1559.00
2023-05-05T09:06:07.078Z,1560.00
2023-05-05T09:07:07.698Z,1570.00
2023-05-05T09:08:06.850Z,1591.00
2023-05-05T09:09:06.827Z,1625.00
2023-05-05T09:10:06.817Z,1621.00
2023-05-05T09:11:06.813Z,1616.00
2023-05-05T09:12:06.809Z,1604.00
2023-05-05T09:13:06.850Z,1589.00
2023-05-05T09:14:06.795Z,1601.00
2023-05-05T09:15:06.976Z,1567.00
2023-05-05T09:16:06.805Z,1576.00
2023-05-05T09:17:06.816Z,1579.00
2023-05-05T09:18:06.833Z,1582.00
2023-05-05T09:19:06.785Z,1585.00
2023-05-05T09:20:06.808Z,1591.00
2023-05-05T09:21:06.792Z,1590.00
2023-05-05T09:22:06.872Z,1582.00
2023-05-05T09:23:06.818Z,1587.00
2023-05-05T09:24:08.666Z,1584.00
2023-05-05T09:25:07.069Z,1580.00
2023-05-05T09:26:06.883Z,1581.00
2023-05-05T09:27:06.919Z,1582.00
2023-05-05T09:28:06.937Z,1583.00
2023-05-05T09:29:07.701Z,1584.00
2023-05-05T09:30:07.042Z,1580.00
2023-05-05T09:31:07.245Z,1580.00
2023-05-05T09:32:07.087Z,1578.00
2023-05-05T09:33:07.219Z,1576.00
2023-05-05T09:34:07.217Z,1573.00
2023-05-05T09:35:14.203Z,1575.00
2023-05-05T09:36:07.180Z,1575.00
2023-05-05T09:37:07.182Z,1572.00
2023-05-05T09:38:07.158Z,1567.00
2023-05-05T09:39:07.156Z,1571.00
2023-05-05T09:40:07.134Z,1574.00
2023-05-05T09:41:07.122Z,1575.00
2023-05-05T09:42:07.104Z,1570.00
2023-05-05T09:43:07.089Z,1571.00
2023-05-05T09:44:07.066Z,1568.00
2023-05-05T09:45:07.272Z,1569.00
2023-05-05T09:46:07.089Z,1566.00
2023-05-05T09:47:18.045Z,1562.00
2023-05-05T09:48:08.750Z,1559.00
2023-05-05T09:49:06.998Z,1556.00
2023-05-05T09:50:08.042Z,1557.00
2023-05-05T09:51:06.963Z,1558.00
2023-05-05T09:52:07.085Z,1558.00
2023-05-05T09:53:06.905Z,1557.00
2023-05-05T09:54:06.902Z,1555.00
2023-05-05T09:55:07.697Z,1554.00
2023-05-05T09:56:06.866Z,1554.00
2023-05-05T09:57:06.908Z,1551.00
2023-05-05T09:58:06.968Z,1549.00
2023-05-05T09:59:06.992Z,1547.00
2023-05-05T10:00:07.180Z,1551.00
2023-05-05T10:01:07.149Z,1551.00
2023-05-05T10:02:07.131Z,1552.00
2023-05-05T10:03:07.231Z,1552.00
2023-05-05T10:04:07.213Z,1552.00
2023-05-05T10:05:07.332Z,1543.00
2023-05-05T10:06:07.319Z,1542.00
2023-05-05T10:07:07.352Z,1540.00
2023-05-05T10:08:07.397Z,1538.00
2023-05-05T10:09:07.441Z,1538.00
2023-05-05T10:10:07.922Z,1537.00
2023-05-05T10:11:07.531Z,1534.00
2023-05-05T10:12:07.577Z,1534.00
2023-05-05T10:13:07.736Z,1534.00
2023-05-05T10:14:07.678Z,1538.00
2023-05-05T10:15:07.719Z,1541.00
2023-05-05T10:16:07.857Z,1536.00
2023-05-05T10:17:07.811Z,1540.00
2023-05-05T10:18:08.601Z,1537.00
2023-05-05T10:19:07.913Z,1535.00
2023-05-05T10:20:08.148Z,1536.00
2023-05-05T10:21:08.000Z,1534.00
2023-05-05T10:22:08.045Z,1534.00
2023-05-05T10:23:08.109Z,1533.00
2023-05-05T10:24:08.142Z,1533.00
2023-05-05T10:25:08.200Z,1530.00
2023-05-05T10:26:08.295Z,1526.00
2023-05-05T10:27:08.281Z,1528.00
2023-05-05T10:28:08.343Z,1530.00
2023-05-05T10:29:08.382Z,1529.00
2023-05-05T10:30:08.615Z,1524.00
2023-05-05T10:31:20.369Z,1524.00
2023-05-05T10:32:33.479Z,1523.00
2023-05-05T10:34:08.546Z,1529.00
2023-05-05T10:35:08.392Z,1527.00
2023-05-05T10:36:08.364Z,1523.00
2023-05-05T10:37:08.354Z,1523.00
2023-05-05T10:38:08.339Z,1520.00
2023-05-05T10:39:08.334Z,1518.00
2023-05-05T10:40:08.548Z,1517.00
2023-05-05T10:41:08.470Z,1511.00
2023-05-05T10:42:08.588Z,1510.00
2023-05-05T10:43:08.537Z,1506.00
2023-05-05T10:44:08.573Z,1504.00
2023-05-05T10:45:08.636Z,1503.00
2023-05-05T10:46:08.709Z,1503.00
2023-05-05T10:47:08.702Z,1502.00
2023-05-05T10:48:08.806Z,1503.00
2023-05-05T10:49:10.048Z,1502.00
2023-05-05T10:50:09.048Z,1500.00
2023-05-05T10:51:08.758Z,1498.00
2023-05-05T10:52:08.750Z,1496.00
2023-05-05T10:53:08.731Z,1496.00
2023-05-05T10:54:08.833Z,1499.00
2023-05-05T10:55:08.676Z,1498.00
2023-05-05T10:56:08.672Z,1497.00
2023-05-05T10:57:08.628Z,1492.00
2023-05-05T10:58:08.742Z,1491.00
2023-05-05T10:59:08.597Z,1491.00
2023-05-05T11:00:08.814Z,1489.00
2023-05-05T11:01:08.567Z,1487.00
2023-05-05T11:02:08.538Z,1487.00
2023-05-05T11:03:08.652Z,1485.00
2023-05-05T11:04:08.535Z,1488.00
2023-05-05T11:05:08.547Z,1483.00
2023-05-05T11:06:08.490Z,1481.00
2023-05-05T11:07:09.233Z,1480.00
2023-05-05T11:08:08.431Z,1481.00
2023-05-05T11:09:08.416Z,1479.00
2023-05-05T11:10:08.627Z,1476.00
2023-05-05T11:11:08.377Z,1478.00
2023-05-05T11:12:08.360Z,1475.00
2023-05-05T11:13:08.371Z,1471.00
2023-05-05T11:14:08.349Z,1470.00
2023-05-05T11:15:08.348Z,1470.00
2023-05-05T11:16:08.377Z,1471.00
2023-05-05T11:17:08.281Z,1482.00
2023-05-05T11:18:08.786Z,1461.00
2023-05-05T11:19:08.254Z,1371.00
2023-05-05T11:20:08.360Z,1379.00
2023-05-05T11:21:08.226Z,1416.00
2023-05-05T11:22:08.220Z,1354.00
2023-05-05T11:23:08.237Z,1360.00
2023-05-05T11:24:08.192Z,1376.00
2023-05-05T11:25:08.148Z,1204.00
2023-05-05T11:26:08.137Z,1213.00
2023-05-05T11:27:08.115Z,1228.00
2023-05-05T11:28:08.109Z,1241.00
2023-05-05T11:29:08.074Z,1229.00
2023-05-05T11:30:08.288Z,1052.00
2023-05-05T11:31:08.064Z,1080.00
2023-05-05T11:32:08.022Z,1120.00
2023-05-05T11:33:08.361Z,1138.00
2023-05-05T11:34:07.983Z,1148.00
2023-05-05T11:35:07.970Z,1156.00
2023-05-05T11:36:07.946Z,1161.00
2023-05-05T11:37:07.929Z,1164.00
2023-05-05T11:38:07.923Z,1169.00
2023-05-05T11:39:07.900Z,1172.00
2023-05-05T11:40:08.091Z,1172.00
2023-05-05T11:41:07.855Z,1174.00
2023-05-05T11:42:10.788Z,1174.00
2023-05-05T11:43:07.827Z,1171.00
2023-05-05T11:44:07.812Z,1174.00
2023-05-05T11:45:07.807Z,1170.00
2023-05-05T11:46:07.852Z,1171.00
2023-05-05T11:47:07.761Z,1171.00
2023-05-05T11:48:08.112Z,1168.00
2023-05-05T11:49:07.726Z,1170.00
2023-05-05T11:50:07.948Z,1174.00
2023-05-05T11:51:07.696Z,1175.00
2023-05-05T11:52:07.693Z,1171.00
2023-05-05T11:53:07.664Z,1168.00
2023-05-05T11:54:07.665Z,1172.00
2023-05-05T11:55:07.657Z,1171.00
2023-05-05T11:56:07.704Z,1167.00
2023-05-05T11:57:07.712Z,1169.00
2023-05-05T11:58:07.626Z,1172.00
2023-05-05T11:59:07.588Z,1171.00
2023-05-05T12:00:07.854Z,1171.00
2023-05-05T12:01:07.541Z,1173.00
2023-05-05T12:02:07.667Z,1172.00
2023-05-05T12:03:07.677Z,1173.00
2023-05-05T12:04:07.628Z,1177.00
2023-05-05T12:05:07.527Z,1175.00
2023-05-05T12:06:07.482Z,1176.00
2023-05-05T12:07:07.465Z,1175.00
2023-05-05T12:08:07.452Z,1175.00
2023-05-05T12:09:07.438Z,1173.00
2023-05-05T12:10:07.573Z,1173.00
2023-05-05T12:11:07.409Z,1169.00
2023-05-05T12:12:07.397Z,1172.00